Time;durP1;ratioP1;P1;durP2;ratioP2;P2;SDS_P1;SDS_P2;PMS_P1;PMS_P2;Temp;Humidity;BMP_temperature;BMP_pressure;BME280_temperature;BME280_humidity;BME280_pressure;Samples;Min_cycle;Max_cycle;Signal;HPM_P1;HPM_P2
2023/11/19 00:02:39;;;;;;;19.85;9.63;;;;;;;;;;6043060;29;20171;-96
2023/11/19 00:28:44;;;;;;;50.97;25.73;;;;;;;;;;6082705;29;20066;-93
2023/11/19 00:31:46;;;;;;;65.82;27.90;;;;;;;;;;6066139;29;20147;-96
2023/11/19 00:45:08;;;;;;;19.48;9.75;;;;;;;;;;6245435;23;20068;-96
2023/11/19 00:48:17;;;;;;;17.48;10.25;;;;;;;;;;6265481;28;20057;-95
2023/11/19 01:23:29;;;;;;;18.40;10.20;;;;;;;;;;6207528;28;20098;-95
2023/11/19 01:58:48;;;;;;;15.35;9.48;;;;;;;;;;6253625;28;20022;-96
2023/11/19 02:41:09;;;;;;;17.80;8.93;;;;;;;;;;6228885;28;20060;-95
2023/11/19 02:44:23;;;;;;;14.35;9.13;;;;;;;;;;6253614;28;20042;-96
2023/11/19 02:54:27;;;;;;;15.20;9.18;;;;;;;;;;6639044;22;20134;-95
2023/11/19 03:18:19;;;;;;;15.55;8.73;;;;;;;;;;6238814;28;20076;-96
2023/11/19 03:54:09;;;;;;;14.80;8.85;;;;;;;;;;6187748;28;20054;-96
2023/11/19 04:18:49;;;;;;;19.40;8.55;;;;;;;;;;6158346;22;20049;-84
2023/11/19 04:21:53;;;;;;;14.10;9.25;;;;;;;;;;6252268;28;20052;-84
2023/11/19 04:24:55;;;;;;;16.85;9.73;;;;;;;;;;6254121;28;20105;-84
2023/11/19 04:27:57;;;;;;;15.88;9.18;;;;;;;;;;6255842;28;20073;-84
2023/11/19 04:30:59;;;;;;;16.77;9.80;;;;;;;;;;6255063;28;20050;-83
2023/11/19 04:34:01;;;;;;;17.38;9.77;;;;;;;;;;6254552;28;20052;-84
2023/11/19 04:37:05;;;;;;;18.00;9.43;;;;;;;;;;6250444;28;20049;-84
2023/11/19 04:40:09;;;;;;;14.13;9.32;;;;;;;;;;6255194;28;20068;-84
2023/11/19 04:43:12;;;;;;;16.70;10.00;;;;;;;;;;6258239;28;20345;-83
2023/11/19 04:46:26;;;;;;;15.30;9.52;;;;;;;;;;6256479;28;20106;-83
2023/11/19 04:49:30;;;;;;;20.57;10.30;;;;;;;;;;6252576;28;20065;-83
2023/11/19 04:52:33;;;;;;;;;;;;;;;;;;6256542;28;20109;-84
2023/11/19 04:55:35;;;;;;;18.08;9.68;;;;;;;;;;6252850;28;19952;-83
2023/11/19 04:58:37;;;;;;;16.73;9.80;;;;;;;;;;6254332;28;20109;-84
2023/11/19 05:01:39;;;;;;;15.98;8.95;;;;;;;;;;6253593;28;20068;-84
2023/11/19 05:04:44;;;;;;;16.00;10.02;;;;;;;;;;6252866;28;20046;-84
2023/11/19 05:07:48;;;;;;;14.95;8.75;;;;;;;;;;6252022;28;20054;-83
2023/11/19 05:10:50;;;;;;;16.67;9.20;;;;;;;;;;6249578;28;20069;-84
2023/11/19 05:13:52;;;;;;;17.65;8.98;;;;;;;;;;6254096;28;20053;-84
2023/11/19 05:20:35;;;;;;;22.35;9.45;;;;;;;;;;6264990;28;20053;-96
2023/11/19 05:38:09;;;;;;;17.10;9.23;;;;;;;;;;6190641;28;20042;-96
2023/11/19 06:06:40;;;;;;;17.48;9.02;;;;;;;;;;6272743;23;20025;-93
2023/11/19 06:13:25;;;;;;;13.93;8.88;;;;;;;;;;6252654;28;20052;-95
2023/11/19 06:31:05;;;;;;;14.43;8.18;;;;;;;;;;6284580;22;20053;-84
2023/11/19 06:34:11;;;;;;;13.80;8.40;;;;;;;;;;6264522;28;20064;-84
2023/11/19 06:37:14;;;;;;;16.52;8.95;;;;;;;;;;6263470;28;20113;-83
2023/11/19 06:40:17;;;;;;;14.35;7.90;;;;;;;;;;6254789;28;20037;-84
2023/11/19 06:43:19;;;;;;;13.00;7.90;;;;;;;;;;6263106;28;20076;-83
2023/11/19 06:46:21;;;;;;;13.25;7.97;;;;;;;;;;6264580;28;20069;-84
2023/11/19 06:49:24;;;;;;;11.27;7.70;;;;;;;;;;6266090;28;20071;-84
2023/11/19 06:52:27;;;;;;;14.77;8.37;;;;;;;;;;6262390;28;20052;-83
2023/11/19 06:55:30;;;;;;;13.80;8.00;;;;;;;;;;6262376;28;20045;-84
2023/11/19 06:58:32;;;;;;;11.70;7.40;;;;;;;;;;6260911;28;20663;-84
2023/11/19 07:01:36;;;;;;;11.27;6.60;;;;;;;;;;6260465;28;20056;-84
2023/11/19 07:04:39;;;;;;;9.13;6.18;;;;;;;;;;6258651;28;20045;-84
2023/11/19 07:07:42;;;;;;;11.07;6.35;;;;;;;;;;6259306;28;20096;-84
2023/11/19 07:10:44;;;;;;;11.95;6.68;;;;;;;;;;6257687;28;20045;-83
2023/11/19 07:13:57;;;;;;;12.88;7.53;;;;;;;;;;6258693;28;20049;-84
2023/11/19 07:17:02;;;;;;;12.85;6.93;;;;;;;;;;6259744;28;20083;-83
2023/11/19 07:20:06;;;;;;;14.30;7.10;;;;;;;;;;6270187;28;20052;-83
2023/11/19 07:23:24;;;;;;;9.50;6.07;;;;;;;;;;6261792;28;20108;-80
2023/11/19 07:26:39;;;;;;;11.10;5.70;;;;;;;;;;6227010;28;20041;-83
2023/11/19 07:29:43;;;;;;;10.10;5.30;;;;;;;;;;6253562;28;20060;-83
2023/11/19 07:32:59;;;;;;;9.10;4.82;;;;;;;;;;6260481;28;20076;-82
2023/11/19 07:36:02;;;;;;;7.20;4.95;;;;;;;;;;6264798;28;20119;-82
2023/11/19 07:39:08;;;;;;;9.07;4.55;;;;;;;;;;6249286;28;20061;-83
2023/11/19 07:42:16;;;;;;;21.20;4.93;;;;;;;;;;6248048;28;20049;-81
2023/11/19 07:48:27;;;;;;;7.13;4.45;;;;;;;;;;6241408;28;20049;-94
2023/11/19 08:08:38;;;;;;;7.47;4.45;;;;;;;;;;7668371;22;20020;-94
2023/11/19 08:47:58;;;;;;;11.68;7.75;;;;;;;;;;6252964;28;20049;-95
2023/11/19 08:51:02;;;;;;;10.82;7.78;;;;;;;;;;6267247;28;20072;-93
2023/11/19 08:54:05;;;;;;;13.00;8.05;;;;;;;;;;6262687;28;20284;-95
2023/11/19 08:57:08;;;;;;;9.73;7.00;;;;;;;;;;6261263;28;20117;-92
2023/11/19 09:00:14;;;;;;;12.80;6.50;;;;;;;;;;6245204;28;20112;-94
2023/11/19 09:03:20;;;;;;;7.68;6.00;;;;;;;;;;6246812;28;20096;-93
2023/11/19 09:06:23;;;;;;;7.88;5.38;;;;;;;;;;6241987;28;20046;-93
2023/11/19 09:09:25;;;;;;;8.73;6.03;;;;;;;;;;6248504;28;20051;-93
2023/11/19 09:12:27;;;;;;;9.55;5.32;;;;;;;;;;6249304;28;20053;-93
2023/11/19 09:15:28;;;;;;;8.85;5.55;;;;;;;;;;6249191;28;20108;-92
2023/11/19 09:18:31;;;;;;;10.75;5.90;;;;;;;;;;6246773;28;20056;-95
2023/11/19 09:21:37;;;;;;;7.68;5.72;;;;;;;;;;6245571;28;20138;-92
2023/11/19 09:24:39;;;;;;;7.75;5.57;;;;;;;;;;6247531;28;20092;-96
2023/11/19 09:27:41;;;;;;;9.20;6.32;;;;;;;;;;6250887;28;20372;-95
2023/11/19 09:30:43;;;;;;;11.18;7.05;;;;;;;;;;6253740;28;20045;-94
2023/11/19 09:33:45;;;;;;;10.07;7.65;;;;;;;;;;6260260;28;20057;-96
2023/11/19 09:36:48;;;;;;;11.38;6.80;;;;;;;;;;6254165;28;20054;-95
2023/11/19 09:39:50;;;;;;;12.32;6.85;;;;;;;;;;6253547;28;20104;-96
2023/11/19 09:42:52;;;;;;;10.18;6.82;;;;;;;;;;6253314;28;20049;-96
2023/11/19 09:45:54;;;;;;;12.05;7.25;;;;;;;;;;6247837;28;20045;-96
2023/11/19 09:48:57;;;;;;;12.45;7.68;;;;;;;;;;6245364;28;20333;-94
2023/11/19 09:52:00;;;;;;;10.98;8.15;;;;;;;;;;6253453;28;20069;-95
2023/11/19 09:55:02;;;;;;;12.55;8.00;;;;;;;;;;6249520;28;20049;-95
2023/11/19 09:58:03;;;;;;;11.57;8.52;;;;;;;;;;6247715;28;20050;-96
2023/11/19 10:01:07;;;;;;;11.60;8.82;;;;;;;;;;6247322;28;20045;-94
2023/11/19 10:04:09;;;;;;;11.68;8.63;;;;;;;;;;6244839;28;20057;-96
2023/11/19 10:07:15;;;;;;;12.88;10.00;;;;;;;;;;6270718;28;20052;-96
2023/11/19 10:10:24;;;;;;;15.20;10.57;;;;;;;;;;6270406;28;20087;-96
2023/11/19 10:13:34;;;;;;;16.80;10.75;;;;;;;;;;6271477;28;20056;-95
2023/11/19 10:16:48;;;;;;;14.77;11.10;;;;;;;;;;6256578;28;20041;-96
2023/11/19 10:19:55;;;;;;;19.02;13.00;;;;;;;;;;6277614;28;20049;-96
2023/11/19 10:23:00;;;;;;;17.00;13.13;;;;;;;;;;6259228;28;20116;-96
2023/11/19 10:26:08;;;;;;;17.98;13.02;;;;;;;;;;6253886;28;20093;-96
2023/11/19 10:29:22;;;;;;;20.88;13.82;;;;;;;;;;6236223;28;20164;-96
2023/11/19 10:32:37;;;;;;;20.55;13.48;;;;;;;;;;6260113;28;20057;-96
2023/11/19 10:36:01;;;;;;;19.10;14.77;;;;;;;;;;6262283;28;20053;-96
2023/11/19 10:39:33;;;;;;;20.70;16.60;;;;;;;;;;6285587;28;20069;-95
2023/11/19 10:42:37;;;;;;;18.60;13.90;;;;;;;;;;6245770;28;20040;-96
2023/11/19 10:45:50;;;;;;;17.88;14.18;;;;;;;;;;6280710;28;20053;-96
2023/11/19 10:48:58;;;;;;;21.85;15.02;;;;;;;;;;6265576;28;20049;-96
2023/11/19 10:52:04;;;;;;;21.23;14.38;;;;;;;;;;6278204;28;20045;-96
2023/11/19 10:55:10;;;;;;;21.90;15.13;;;;;;;;;;6272819;28;20045;-96
2023/11/19 10:58:45;;;;;;;19.90;15.30;;;;;;;;;;6263902;28;20253;-96
2023/11/19 11:01:56;;;;;;;21.23;15.15;;;;;;;;;;6257356;28;20108;-96
2023/11/19 11:05:07;;;;;;;24.30;15.55;;;;;;;;;;6269448;28;20050;-96
2023/11/19 11:08:25;;;;;;;19.15;14.15;;;;;;;;;;6262835;28;20053;-96
2023/11/19 11:11:32;;;;;;;18.20;13.18;;;;;;;;;;6256992;28;20084;-96
2023/11/19 11:14:41;;;;;;;18.88;13.98;;;;;;;;;;6255563;28;20037;-96
2023/11/19 11:17:52;;;;;;;18.30;14.30;;;;;;;;;;6257116;28;20072;-96
2023/11/19 11:21:11;;;;;;;19.10;14.65;;;;;;;;;;6267080;28;20057;-96
2023/11/19 11:24:47;;;;;;;16.67;14.25;;;;;;;;;;6266212;28;20057;-96
2023/11/19 11:28:12;;;;;;;20.02;13.73;;;;;;;;;;6269303;28;20050;-95
2023/11/19 11:31:26;;;;;;;17.52;13.85;;;;;;;;;;6257780;28;20061;-96
2023/11/19 11:34:45;;;;;;;20.23;13.80;;;;;;;;;;6255064;28;20068;-96
2023/11/19 11:37:49;;;;;;;18.08;13.80;;;;;;;;;;6252987;28;20059;-96
2023/11/19 11:41:16;;;;;;;17.38;13.73;;;;;;;;;;6250130;28;20069;-93
2023/11/19 11:44:19;;;;;;;24.77;14.45;;;;;;;;;;6248371;28;20128;-95
2023/11/19 11:47:21;;;;;;;25.00;15.00;;;;;;;;;;6254894;28;20063;-96
2023/11/19 11:50:23;;;;;;;18.58;13.10;;;;;;;;;;6250492;28;20104;-95
2023/11/19 11:53:26;;;;;;;16.17;13.13;;;;;;;;;;6251634;28;20073;-93
2023/11/19 11:56:34;;;;;;;21.77;13.30;;;;;;;;;;6255052;28;20110;-96
2023/11/19 11:59:50;;;;;;;16.27;12.32;;;;;;;;;;6252648;28;20051;-96
2023/11/19 12:02:54;;;;;;;17.88;13.25;;;;;;;;;;6251498;28;20075;-96
2023/11/19 12:05:56;;;;;;;16.48;12.07;;;;;;;;;;6249696;28;20077;-96
2023/11/19 12:09:00;;;;;;;19.08;13.02;;;;;;;;;;6249722;28;20053;-92
2023/11/19 12:12:14;;;;;;;16.90;12.77;;;;;;;;;;6250924;28;20065;-96
2023/11/19 12:15:19;;;;;;;14.63;11.68;;;;;;;;;;6247811;28;20113;-95
2023/11/19 12:18:21;;;;;;;16.60;11.95;;;;;;;;;;6248096;28;20131;-95
2023/11/19 12:21:30;;;;;;;17.50;13.05;;;;;;;;;;6253501;28;20092;-96
2023/11/19 12:24:32;;;;;;;16.63;13.55;;;;;;;;;;6250472;28;20393;-94
2023/11/19 12:27:34;;;;;;;15.32;12.93;;;;;;;;;;6251120;28;20348;-86
2023/11/19 12:31:14;;;;;;;16.90;13.45;;;;;;;;;;6248206;28;20048;-92
2023/11/19 12:34:23;;;;;;;18.27;13.90;;;;;;;;;;6241095;28;20061;-92
2023/11/19 12:37:29;;;;;;;17.65;13.77;;;;;;;;;;6245899;28;20304;-94
2023/11/19 12:40:34;;;;;;;18.75;13.50;;;;;;;;;;6248816;28;20081;-94
2023/11/19 12:43:38;;;;;;;17.60;13.48;;;;;;;;;;6247009;28;20290;-94
2023/11/19 12:46:47;;;;;;;19.00;14.07;;;;;;;;;;6254175;28;20050;-96
2023/11/19 12:50:00;;;;;;;15.38;13.25;;;;;;;;;;6264025;28;20107;-96
2023/11/19 12:53:05;;;;;;;18.27;13.95;;;;;;;;;;6250720;28;20057;-96
2023/11/19 12:56:23;;;;;;;15.95;12.75;;;;;;;;;;6254457;28;20084;-96
2023/11/19 12:59:28;;;;;;;23.02;13.38;;;;;;;;;;6266104;28;20116;-96
2023/11/19 13:02:56;;;;;;;18.10;13.07;;;;;;;;;;6252804;28;20308;-96
2023/11/19 13:06:11;;;;;;;16.10;13.65;;;;;;;;;;6256612;28;20042;-96
2023/11/19 13:09:23;;;;;;;16.02;12.70;;;;;;;;;;6269194;28;20045;-96
2023/11/19 13:12:26;;;;;;;15.82;12.32;;;;;;;;;;6263617;28;20045;-96
2023/11/19 13:15:29;;;;;;;14.73;12.52;;;;;;;;;;6259989;28;20296;-96
2023/11/19 13:21:48;;;;;;;16.73;13.10;;;;;;;;;;6228051;22;20046;-94
2023/11/19 13:24:50;;;;;;;18.35;13.10;;;;;;;;;;6249227;28;20057;-94
2023/11/19 13:27:52;;;;;;;17.60;13.55;;;;;;;;;;6245276;28;20073;-92
2023/11/19 13:30:54;;;;;;;21.25;13.65;;;;;;;;;;6242051;28;20140;-92
2023/11/19 13:33:58;;;;;;;19.08;13.52;;;;;;;;;;6239988;28;20295;-93
2023/11/19 13:36:59;;;;;;;17.00;12.68;;;;;;;;;;6246622;28;20419;-94
2023/11/19 13:40:04;;;;;;;16.20;12.73;;;;;;;;;;6236016;28;20297;-91
2023/11/19 13:43:07;;;;;;;16.35;12.35;;;;;;;;;;6247429;28;20072;-91
2023/11/19 13:46:09;;;;;;;17.10;12.02;;;;;;;;;;6234079;28;20070;-90
2023/11/19 13:49:13;;;;;;;13.83;11.53;;;;;;;;;;6246958;28;20113;-88
2023/11/19 13:52:14;;;;;;;14.30;12.27;;;;;;;;;;6245034;28;20057;-90
2023/11/19 13:55:16;;;;;;;14.50;11.27;;;;;;;;;;6241024;28;20100;-91
2023/11/19 13:58:18;;;;;;;15.38;11.32;;;;;;;;;;6243508;28;20109;-91
2023/11/19 14:01:20;;;;;;;14.57;10.95;;;;;;;;;;6240319;28;20538;-90
2023/11/19 14:04:23;;;;;;;7.05;6.13;;;;;;;;;;6242003;28;20245;-90
2023/11/19 14:07:25;;;;;;;10.68;6.40;;;;;;;;;;6242783;28;20049;-91
2023/11/19 14:10:28;;;;;;;6.85;5.60;;;;;;;;;;6242378;28;20103;-92
2023/11/19 14:13:30;;;;;;;8.23;5.43;;;;;;;;;;6242901;28;20053;-92
2023/11/19 14:16:32;;;;;;;8.20;5.22;;;;;;;;;;6245605;28;20104;-94
2023/11/19 14:19:39;;;;;;;6.85;5.30;;;;;;;;;;6242943;28;20057;-90
2023/11/19 14:22:41;;;;;;;7.70;5.45;;;;;;;;;;6244938;28;20116;-91
2023/11/19 14:25:42;;;;;;;7.32;5.72;;;;;;;;;;6244352;28;20113;-92
2023/11/19 14:28:44;;;;;;;7.97;5.93;;;;;;;;;;6246450;28;20050;-92
2023/11/19 14:31:46;;;;;;;9.63;5.75;;;;;;;;;;6245824;28;20061;-90
2023/11/19 14:34:49;;;;;;;9.65;6.32;;;;;;;;;;6248191;28;20050;-88
2023/11/19 14:37:51;;;;;;;8.18;5.47;;;;;;;;;;6242457;28;20073;-92
2023/11/19 14:40:54;;;;;;;8.13;5.70;;;;;;;;;;6247283;28;20060;-90
2023/11/19 14:43:56;;;;;;;10.25;6.00;;;;;;;;;;6247067;28;20368;-91
2023/11/19 14:46:58;;;;;;;11.50;6.47;;;;;;;;;;6248759;28;20364;-92
2023/11/19 14:50:02;;;;;;;9.07;5.78;;;;;;;;;;6242272;28;20339;-89
2023/11/19 14:53:04;;;;;;;9.77;6.93;;;;;;;;;;6245148;28;20067;-91
2023/11/19 14:56:07;;;;;;;8.93;7.30;;;;;;;;;;6250873;28;20041;-92
2023/11/19 14:59:08;;;;;;;15.70;6.95;;;;;;;;;;6233802;28;20303;-92
2023/11/19 15:02:10;;;;;;;11.90;8.48;;;;;;;;;;6243387;28;20053;-93
2023/11/19 15:05:13;;;;;;;13.80;8.30;;;;;;;;;;6246803;28;20112;-93
2023/11/19 15:08:15;;;;;;;12.23;8.05;;;;;;;;;;6241215;28;20096;-89
2023/11/19 15:11:18;;;;;;;12.80;7.90;;;;;;;;;;6251498;28;20049;-93
2023/11/19 15:14:20;;;;;;;12.65;7.68;;;;;;;;;;6249446;28;20057;-92
2023/11/19 15:17:21;;;;;;;11.10;7.75;;;;;;;;;;6248578;28;20109;-90
2023/11/19 15:20:25;;;;;;;12.45;8.32;;;;;;;;;;6255713;28;20072;-90
2023/11/19 15:23:29;;;;;;;10.55;7.95;;;;;;;;;;6249481;28;20040;-83
2023/11/19 15:26:30;;;;;;;13.68;8.13;;;;;;;;;;6250668;28;20423;-80
2023/11/19 15:29:34;;;;;;;10.25;8.27;;;;;;;;;;6248886;28;20071;-91
2023/11/19 15:32:36;;;;;;;12.82;9.07;;;;;;;;;;6266465;28;20072;-84
2023/11/19 15:35:40;;;;;;;11.00;7.85;;;;;;;;;;6256982;28;20319;-88
2023/11/19 15:38:42;;;;;;;12.88;9.35;;;;;;;;;;6251871;28;20057;-90
2023/11/19 15:41:44;;;;;;;17.77;11.90;;;;;;;;;;6251336;28;20340;-90
2023/11/19 15:44:45;;;;;;;20.70;13.82;;;;;;;;;;6251657;28;20352;-91
2023/11/19 15:47:50;;;;;;;75.80;38.03;;;;;;;;;;6253074;28;20061;-90
2023/11/19 15:50:54;;;;;;;266.25;119.65;;;;;;;;;;6255129;28;20057;-92
2023/11/19 15:53:55;;;;;;;127.65;63.55;;;;;;;;;;6260110;28;20037;-87
2023/11/19 15:56:57;;;;;;;25.13;16.85;;;;;;;;;;6269189;28;20336;-88
2023/11/19 15:59:59;;;;;;;20.38;14.07;;;;;;;;;;6248197;28;20053;-91
2023/11/19 16:03:02;;;;;;;17.30;12.95;;;;;;;;;;6248275;28;20113;-89
2023/11/19 16:06:07;;;;;;;19.90;13.63;;;;;;;;;;6243265;28;20073;-90
2023/11/19 16:09:11;;;;;;;19.20;14.25;;;;;;;;;;6247350;28;20057;-93
2023/11/19 16:12:14;;;;;;;16.23;12.93;;;;;;;;;;6245988;28;20060;-92
2023/11/19 16:15:16;;;;;;;18.58;13.48;;;;;;;;;;6247537;28;20112;-90
2023/11/19 16:18:17;;;;;;;17.83;13.25;;;;;;;;;;6245925;28;20343;-90
2023/11/19 16:21:20;;;;;;;18.17;13.43;;;;;;;;;;6242147;28;20058;-85
2023/11/19 16:24:22;;;;;;;20.17;14.50;;;;;;;;;;6246467;28;20057;-89
2023/11/19 16:27:24;;;;;;;18.23;13.68;;;;;;;;;;6245774;28;20056;-93
2023/11/19 16:30:27;;;;;;;19.20;13.80;;;;;;;;;;6260161;28;20033;-92
2023/11/19 16:33:42;;;;;;;19.20;14.13;;;;;;;;;;6271393;28;20065;-94
2023/11/19 16:36:47;;;;;;;17.92;13.95;;;;;;;;;;6262234;28;20093;-87
2023/11/19 16:39:49;;;;;;;;;;;;;;;;;;6258892;28;20052;-86
2023/11/19 16:42:51;;;;;;;18.70;13.95;;;;;;;;;;6269854;28;19924;-91
2023/11/19 16:45:53;;;;;;;20.45;14.23;;;;;;;;;;6247821;28;20049;-90
2023/11/19 16:48:59;;;;;;;20.10;13.93;;;;;;;;;;6251601;28;20038;-85
2023/11/19 16:52:04;;;;;;;18.95;13.90;;;;;;;;;;6264055;28;20053;-88
2023/11/19 16:55:11;;;;;;;21.50;14.10;;;;;;;;;;6263222;28;20049;-90
2023/11/19 16:58:13;;;;;;;18.42;14.15;;;;;;;;;;6247159;28;20080;-89
2023/11/19 17:01:15;;;;;;;21.77;14.35;;;;;;;;;;6247317;28;20057;-86
2023/11/19 17:04:19;;;;;;;18.70;13.88;;;;;;;;;;6262120;28;20045;-87
2023/11/19 17:07:24;;;;;;;;;;;;;;;;;;6268966;28;20088;-91
2023/11/19 17:10:27;;;;;;;23.15;13.85;;;;;;;;;;6246499;28;20212;-92
2023/11/19 17:13:28;;;;;;;21.10;13.88;;;;;;;;;;6243753;28;20046;-91
2023/11/19 17:16:30;;;;;;;20.77;15.18;;;;;;;;;;6250755;28;20050;-92
2023/11/19 17:19:32;;;;;;;19.58;14.38;;;;;;;;;;6248600;28;20061;-89
2023/11/19 17:22:36;;;;;;;18.13;13.35;;;;;;;;;;6239508;28;20041;-91
2023/11/19 17:25:38;;;;;;;;;;;;;;;;;;6242572;28;20073;-91
2023/11/19 17:28:40;;;;;;;18.50;13.60;;;;;;;;;;6249579;28;19951;-85
2023/11/19 17:31:44;;;;;;;18.60;14.15;;;;;;;;;;6265458;28;20034;-85
2023/11/19 17:34:46;;;;;;;18.45;13.48;;;;;;;;;;6262437;23;20242;-94
2023/11/19 17:38:02;;;;;;;20.60;14.48;;;;;;;;;;6192040;28;20096;-95
2023/11/19 17:41:11;;;;;;;19.65;14.48;;;;;;;;;;6223232;28;20129;-96
2023/11/19 17:44:17;;;;;;;17.95;14.27;;;;;;;;;;6199440;28;20053;-96
2023/11/19 17:47:21;;;;;;;17.08;13.32;;;;;;;;;;6221761;28;20058;-94
2023/11/19 17:50:25;;;;;;;19.48;13.90;;;;;;;;;;6221888;28;20080;-95
2023/11/19 17:53:29;;;;;;;;;;;;;;;;;;6219502;28;20050;-96
2023/11/19 17:56:34;;;;;;;18.73;14.30;;;;;;;;;;6217838;28;20000;-91
2023/11/19 17:59:38;;;;;;;19.77;14.35;;;;;;;;;;6225961;28;20106;-95
2023/11/19 18:02:51;;;;;;;19.25;14.25;;;;;;;;;;6225505;28;20246;-96
2023/11/19 18:05:53;;;;;;;20.60;13.30;;;;;;;;;;6202888;28;20113;-96
2023/11/19 18:09:01;;;;;;;19.75;14.30;;;;;;;;;;6219695;28;20062;-96
2023/11/19 18:12:04;;;;;;;19.08;14.40;;;;;;;;;;6181329;28;20057;-96
2023/11/19 18:15:12;;;;;;;21.40;14.75;;;;;;;;;;6208191;28;20058;-96
2023/11/19 18:18:26;;;;;;;19.67;14.38;;;;;;;;;;6171203;28;20066;-94
2023/11/19 18:21:29;;;;;;;20.70;14.63;;;;;;;;;;6194380;28;20115;-95
2023/11/19 18:24:36;;;;;;;24.77;15.27;;;;;;;;;;6217359;28;20077;-96
2023/11/19 18:27:40;;;;;;;20.35;14.73;;;;;;;;;;6225301;28;20100;-96
2023/11/19 18:30:44;;;;;;;;;;;;;;;;;;6219909;28;20038;-96
2023/11/19 18:33:48;;;;;;;20.27;14.18;;;;;;;;;;6218942;28;19972;-96
2023/11/19 18:36:50;;;;;;;;;;;;;;;;;;6198896;28;20366;-96
2023/11/19 18:43:13;;;;;;;20.60;13.77;;;;;;;;;;6202389;28;20059;-95
2023/11/19 18:46:17;;;;;;;23.00;13.95;;;;;;;;;;6215168;28;20129;-94
2023/11/19 18:49:23;;;;;;;23.15;15.00;;;;;;;;;;6217761;28;20053;-95
2023/11/19 18:52:26;;;;;;;18.77;14.32;;;;;;;;;;6223718;28;20060;-96
2023/11/19 18:55:31;;;;;;;21.07;14.00;;;;;;;;;;6224789;28;20082;-94
2023/11/19 18:58:34;;;;;;;19.63;13.25;;;;;;;;;;6206296;28;20050;-96
2023/11/19 19:01:37;;;;;;;20.02;12.73;;;;;;;;;;6223735;28;20077;-96
2023/11/19 19:04:40;;;;;;;20.03;12.73;;;;;;;;;;6224006;28;20078;-94
2023/11/19 19:07:44;;;;;;;18.02;12.70;;;;;;;;;;6218302;28;20330;-96
2023/11/19 19:14:07;;;;;;;18.05;11.80;;;;;;;;;;6168702;28;20113;-96
2023/11/19 19:17:18;;;;;;;18.60;11.27;;;;;;;;;;6196125;28;20309;-96
2023/11/19 19:20:23;;;;;;;16.98;10.93;;;;;;;;;;6220831;28;20346;-96
2023/11/19 19:23:30;;;;;;;17.58;11.00;;;;;;;;;;6229711;28;20065;-96
2023/11/19 19:26:35;;;;;;;16.42;10.50;;;;;;;;;;6208244;28;20047;-96
2023/11/19 19:29:38;;;;;;;21.17;11.68;;;;;;;;;;6220012;28;20058;-96
2023/11/19 19:39:18;;;;;;;15.10;9.90;;;;;;;;;;6180166;28;20053;-96
2023/11/19 19:42:23;;;;;;;15.98;10.10;;;;;;;;;;6216885;28;20116;-96
2023/11/19 19:45:26;;;;;;;15.32;9.55;;;;;;;;;;6204131;28;20050;-95
2023/11/19 19:48:29;;;;;;;15.70;10.07;;;;;;;;;;6205883;28;20060;-96
2023/11/19 19:51:31;;;;;;;16.13;9.90;;;;;;;;;;6222004;28;20280;-96
2023/11/19 19:54:34;;;;;;;14.05;9.68;;;;;;;;;;6197780;28;20053;-96
2023/11/19 19:57:38;;;;;;;14.90;10.00;;;;;;;;;;6220728;28;20231;-96
2023/11/19 20:00:40;;;;;;;14.82;9.65;;;;;;;;;;6206869;28;20057;-95
2023/11/19 20:03:42;;;;;;;15.40;9.48;;;;;;;;;;6224727;28;20077;-96
2023/11/19 20:06:48;;;;;;;14.38;8.82;;;;;;;;;;6220217;28;20077;-96
2023/11/19 20:09:53;;;;;;;18.13;9.30;;;;;;;;;;6186766;28;20050;-95
2023/11/19 20:13:08;;;;;;;12.98;9.35;;;;;;;;;;6190885;28;20342;-92
2023/11/19 20:16:14;;;;;;;14.77;10.07;;;;;;;;;;6219369;28;20092;-94
2023/11/19 20:19:20;;;;;;;16.95;11.10;;;;;;;;;;6230038;28;20046;-96
2023/11/19 20:22:24;;;;;;;15.40;10.32;;;;;;;;;;6225719;28;20060;-96
2023/11/19 20:25:28;;;;;;;18.50;11.65;;;;;;;;;;6220681;28;20050;-94
2023/11/19 20:28:36;;;;;;;25.30;14.43;;;;;;;;;;6223692;28;20057;-96
2023/11/19 20:31:42;;;;;;;23.88;13.73;;;;;;;;;;6223857;28;20115;-96
2023/11/19 20:34:45;;;;;;;26.02;14.95;;;;;;;;;;6222234;28;20038;-96
2023/11/19 20:37:49;;;;;;;30.40;16.33;;;;;;;;;;6227355;28;20059;-96
2023/11/19 20:40:52;;;;;;;26.00;15.90;;;;;;;;;;6227791;28;20053;-95
2023/11/19 20:44:01;;;;;;;29.98;14.65;;;;;;;;;;6202987;28;20120;-96
2023/11/19 20:47:04;;;;;;;27.23;14.73;;;;;;;;;;6214520;28;20056;-95
2023/11/19 20:50:12;;;;;;;23.37;13.60;;;;;;;;;;6216223;28;20046;-94
2023/11/19 20:53:16;;;;;;;25.00;14.55;;;;;;;;;;6216224;28;20115;-95
2023/11/19 20:56:24;;;;;;;24.92;13.73;;;;;;;;;;6192336;28;20071;-96
2023/11/19 21:02:47;;;;;;;20.98;12.73;;;;;;;;;;6216606;28;20059;-96
2023/11/19 21:05:54;;;;;;;23.80;12.68;;;;;;;;;;6223930;28;20058;-95
2023/11/19 21:08:57;;;;;;;17.83;11.32;;;;;;;;;;6221654;28;20234;-96
2023/11/19 21:12:03;;;;;;;18.95;11.50;;;;;;;;;;6221501;28;20192;-95
2023/11/19 21:18:32;;;;;;;18.80;11.27;;;;;;;;;;6204215;28;20064;-96
2023/11/19 21:21:34;;;;;;;15.50;9.43;;;;;;;;;;6208279;28;20101;-96
2023/11/19 21:24:36;;;;;;;20.40;10.45;;;;;;;;;;6225780;28;20054;-96
2023/11/19 21:27:39;;;;;;;19.33;9.32;;;;;;;;;;6220871;28;20072;-94
2023/11/19 21:30:54;;;;;;;18.95;10.18;;;;;;;;;;6175391;28;20042;-96
2023/11/19 21:34:01;;;;;;;17.38;9.65;;;;;;;;;;6180172;28;20050;-96
2023/11/19 21:37:03;;;;;;;21.70;11.43;;;;;;;;;;6231362;28;20096;-96
2023/11/19 21:40:19;;;;;;;16.05;10.07;;;;;;;;;;6201411;28;20058;-96
2023/11/19 21:43:23;;;;;;;19.02;10.27;;;;;;;;;;6219740;28;20042;-96
2023/11/19 21:46:39;;;;;;;15.15;8.93;;;;;;;;;;6196732;28;20113;-96
2023/11/19 21:50:01;;;;;;;16.20;9.13;;;;;;;;;;6204458;28;20042;-96
2023/11/19 21:53:04;;;;;;;18.98;9.73;;;;;;;;;;6160707;28;20227;-96
2023/11/19 21:56:07;;;;;;;16.45;9.05;;;;;;;;;;6210202;28;20047;-96
2023/11/19 21:59:10;;;;;;;20.20;9.65;;;;;;;;;;6219667;28;20050;-96
2023/11/19 22:05:29;;;;;;;17.40;10.20;;;;;;;;;;6202063;28;20073;-96
2023/11/19 22:08:31;;;;;;;17.23;9.88;;;;;;;;;;6215733;28;20096;-94
2023/11/19 22:11:34;;;;;;;13.80;8.20;;;;;;;;;;6216130;28;20080;-95
2023/11/19 22:14:36;;;;;;;17.63;9.38;;;;;;;;;;6224832;28;20049;-96
2023/11/19 22:17:42;;;;;;;15.45;9.05;;;;;;;;;;6218954;28;20100;-95
2023/11/19 22:20:45;;;;;;;14.20;8.55;;;;;;;;;;6192455;28;20114;-96
2023/11/19 22:23:47;;;;;;;14.73;9.13;;;;;;;;;;6221341;28;20121;-96
2023/11/19 22:26:49;;;;;;;15.38;9.75;;;;;;;;;;6219655;28;20068;-94
2023/11/19 22:29:52;;;;;;;12.85;8.40;;;;;;;;;;6220047;28;20060;-96
2023/11/19 22:32:56;;;;;;;13.90;8.50;;;;;;;;;;6204861;28;20062;-95
2023/11/19 22:35:58;;;;;;;17.40;9.00;;;;;;;;;;6204263;28;20255;-96
2023/11/19 22:39:00;;;;;;;16.38;8.75;;;;;;;;;;6221528;28;20050;-96
2023/11/19 22:42:02;;;;;;;14.15;8.90;;;;;;;;;;6195746;28;20046;-96
2023/11/19 22:45:06;;;;;;;14.25;8.85;;;;;;;;;;6224182;28;20042;-96
2023/11/19 22:48:12;;;;;;;17.10;9.23;;;;;;;;;;6226640;28;20223;-96
2023/11/19 22:51:15;;;;;;;20.48;10.30;;;;;;;;;;6221588;28;20054;-96
2023/11/19 22:54:22;;;;;;;31.33;18.00;;;;;;;;;;6225132;28;20046;-96
2023/11/19 22:57:25;;;;;;;36.55;16.73;;;;;;;;;;6224081;28;20071;-96
2023/11/19 23:00:28;;;;;;;22.98;13.85;;;;;;;;;;6206799;28;20050;-96
2023/11/19 23:03:32;;;;;;;21.92;11.93;;;;;;;;;;6221535;28;20054;-95
2023/11/19 23:06:34;;;;;;;24.20;12.33;;;;;;;;;;6224601;28;20046;-96
2023/11/19 23:09:38;;;;;;;26.98;15.15;;;;;;;;;;6221835;28;20057;-96
2023/11/19 23:12:40;;;;;;;;;;;;;;;;;;6216112;28;20444;-96
2023/11/19 23:15:42;;;;;;;21.70;14.57;;;;;;;;;;6206144;28;19992;-90
2023/11/19 23:18:51;;;;;;;131.93;56.13;;;;;;;;;;6223510;28;20054;-93
2023/11/19 23:21:53;;;;;;;154.82;64.50;;;;;;;;;;6226419;28;20058;-94
2023/11/19 23:24:56;;;;;;;73.55;33.80;;;;;;;;;;6222008;28;20058;-95
2023/11/19 23:27:58;;;;;;;73.05;33.50;;;;;;;;;;6222566;28;20049;-91
2023/11/19 23:31:00;;;;;;;59.55;31.08;;;;;;;;;;6216328;28;20056;-94
2023/11/19 23:34:04;;;;;;;32.20;18.98;;;;;;;;;;6194682;28;20356;-96
2023/11/19 23:37:06;;;;;;;21.48;13.90;;;;;;;;;;6204790;28;20042;-94
2023/11/19 23:40:10;;;;;;;22.35;13.80;;;;;;;;;;6222268;28;20054;-94
2023/11/19 23:43:13;;;;;;;21.40;12.35;;;;;;;;;;6221701;28;20058;-95
2023/11/19 23:46:16;;;;;;;24.75;14.45;;;;;;;;;;6220719;28;20235;-96
2023/11/19 23:49:20;;;;;;;23.98;14.68;;;;;;;;;;6224261;28;20379;-96
2023/11/19 23:52:22;;;;;;;22.30;14.93;;;;;;;;;;6205838;28;20266;-95
2023/11/19 23:55:24;;;;;;;25.42;14.93;;;;;;;;;;6221481;28;20050;-96
2023/11/19 23:58:26;;;;;;;24.35;15.82;;;;;;;;;;6223596;28;20045;-96
